sensor_id;sensor_type;location;lat;lon;timestamp;P1;durP1;ratioP1;P2;durP2;ratioP2
75167;SDS011;63748;48.088;11.476;2022-11-20T00:01:06;1.77;;;1.30;;
75167;SDS011;63748;48.088;11.476;2022-11-20T00:03:32;1.48;;;1.25;;
75167;SDS011;63748;48.088;11.476;2022-11-20T00:05:59;2.10;;;1.08;;
75167;SDS011;63748;48.088;11.476;2022-11-20T00:08:25;1.85;;;1.00;;
75167;SDS011;63748;48.088;11.476;2022-11-20T00:10:51;2.53;;;1.10;;
75167;SDS011;63748;48.088;11.476;2022-11-20T00:13:17;3.20;;;1.20;;
75167;SDS011;63748;48.088;11.476;2022-11-20T00:15:43;1.80;;;1.10;;
75167;SDS011;63748;48.088;11.476;2022-11-20T00:18:09;2.22;;;1.38;;
75167;SDS011;63748;48.088;11.476;2022-11-20T00:20:35;1.60;;;1.17;;
75167;SDS011;63748;48.088;11.476;2022-11-20T00:23:01;2.35;;;1.10;;
75167;SDS011;63748;48.088;11.476;2022-11-20T00:25:27;2.20;;;1.48;;
75167;SDS011;63748;48.088;11.476;2022-11-20T00:27:53;1.90;;;1.15;;
75167;SDS011;63748;48.088;11.476;2022-11-20T00:30:19;4.10;;;1.70;;
75167;SDS011;63748;48.088;11.476;2022-11-20T00:32:45;3.75;;;1.52;;
75167;SDS011;63748;48.088;11.476;2022-11-20T00:35:11;2.88;;;1.33;;
75167;SDS011;63748;48.088;11.476;2022-11-20T00:37:38;2.13;;;1.20;;
75167;SDS011;63748;48.088;11.476;2022-11-20T00:40:04;2.60;;;1.73;;
75167;SDS011;63748;48.088;11.476;2022-11-20T00:42:30;1.48;;;0.90;;
75167;SDS011;63748;48.088;11.476;2022-11-20T00:44:57;2.85;;;1.42;;
75167;SDS011;63748;48.088;11.476;2022-11-20T00:47:23;2.20;;;1.45;;
75167;SDS011;63748;48.088;11.476;2022-11-20T00:49:49;3.72;;;1.58;;
75167;SDS011;63748;48.088;11.476;2022-11-20T00:52:15;2.58;;;1.58;;
75167;SDS011;63748;48.088;11.476;2022-11-20T00:54:42;2.47;;;1.35;;
75167;SDS011;63748;48.088;11.476;2022-11-20T00:57:08;2.22;;;1.38;;
75167;SDS011;63748;48.088;11.476;2022-11-20T00:59:34;2.17;;;1.17;;
75167;SDS011;63748;48.088;11.476;2022-11-20T01:02:00;3.72;;;1.50;;
75167;SDS011;63748;48.088;11.476;2022-11-20T01:04:26;2.95;;;1.40;;
75167;SDS011;63748;48.088;11.476;2022-11-20T01:06:52;1.92;;;1.27;;
75167;SDS011;63748;48.088;11.476;2022-11-20T01:09:18;1.40;;;1.30;;
75167;SDS011;63748;48.088;11.476;2022-11-20T01:11:44;4.97;;;1.63;;
75167;SDS011;63748;48.088;11.476;2022-11-20T01:14:14;2.60;;;1.50;;
75167;SDS011;63748;48.088;11.476;2022-11-20T01:16:42;2.22;;;1.52;;
75167;SDS011;63748;48.088;11.476;2022-11-20T01:19:13;2.88;;;1.25;;
75167;SDS011;63748;48.088;11.476;2022-11-20T01:21:40;1.88;;;1.27;;
75167;SDS011;63748;48.088;11.476;2022-11-20T01:24:07;5.00;;;1.33;;
75167;SDS011;63748;48.088;11.476;2022-11-20T01:26:34;4.95;;;1.98;;
75167;SDS011;63748;48.088;11.476;2022-11-20T01:29:01;2.88;;;1.70;;
75167;SDS011;63748;48.088;11.476;2022-11-20T01:33:54;2.22;;;1.30;;
75167;SDS011;63748;48.088;11.476;2022-11-20T01:36:21;1.98;;;1.30;;
75167;SDS011;63748;48.088;11.476;2022-11-20T01:38:48;3.38;;;1.27;;
75167;SDS011;63748;48.088;11.476;2022-11-20T01:41:16;1.85;;;1.05;;
75167;SDS011;63748;48.088;11.476;2022-11-20T01:44:01;3.70;;;1.50;;
75167;SDS011;63748;48.088;11.476;2022-11-20T01:46:28;2.92;;;1.20;;
75167;SDS011;63748;48.088;11.476;2022-11-20T01:48:58;3.13;;;1.30;;
75167;SDS011;63748;48.088;11.476;2022-11-20T01:53:58;1.30;;;0.95;;
75167;SDS011;63748;48.088;11.476;2022-11-20T01:56:26;3.17;;;1.10;;
75167;SDS011;63748;48.088;11.476;2022-11-20T01:58:54;1.73;;;1.30;;
75167;SDS011;63748;48.088;11.476;2022-11-20T02:01:22;1.95;;;1.45;;
75167;SDS011;63748;48.088;11.476;2022-11-20T02:03:48;2.70;;;1.40;;
75167;SDS011;63748;48.088;11.476;2022-11-20T02:06:32;2.40;;;1.33;;
75167;SDS011;63748;48.088;11.476;2022-11-20T02:09:00;2.00;;;1.05;;
75167;SDS011;63748;48.088;11.476;2022-11-20T02:11:26;1.35;;;0.98;;
75167;SDS011;63748;48.088;11.476;2022-11-20T02:13:52;2.10;;;1.20;;
75167;SDS011;63748;48.088;11.476;2022-11-20T02:16:27;4.50;;;1.58;;
75167;SDS011;63748;48.088;11.476;2022-11-20T02:18:55;2.50;;;1.35;;
75167;SDS011;63748;48.088;11.476;2022-11-20T02:24:32;2.25;;;1.15;;
75167;SDS011;63748;48.088;11.476;2022-11-20T02:26:50;2.42;;;1.42;;
75167;SDS011;63748;48.088;11.476;2022-11-20T02:29:17;2.83;;;1.38;;
75167;SDS011;63748;48.088;11.476;2022-11-20T02:31:44;3.15;;;1.42;;
75167;SDS011;63748;48.088;11.476;2022-11-20T02:34:10;2.83;;;1.20;;
75167;SDS011;63748;48.088;11.476;2022-11-20T02:36:36;2.22;;;1.05;;
75167;SDS011;63748;48.088;11.476;2022-11-20T02:39:05;1.75;;;1.13;;
75167;SDS011;63748;48.088;11.476;2022-11-20T02:41:34;2.85;;;1.40;;
75167;SDS011;63748;48.088;11.476;2022-11-20T02:44:01;1.95;;;1.17;;
75167;SDS011;63748;48.088;11.476;2022-11-20T02:46:28;2.20;;;1.50;;
75167;SDS011;63748;48.088;11.476;2022-11-20T02:48:55;5.00;;;1.63;;
75167;SDS011;63748;48.088;11.476;2022-11-20T02:51:21;5.70;;;1.50;;
75167;SDS011;63748;48.088;11.476;2022-11-20T02:53:47;4.32;;;1.67;;
75167;SDS011;63748;48.088;11.476;2022-11-20T02:56:13;1.90;;;1.23;;
75167;SDS011;63748;48.088;11.476;2022-11-20T02:58:39;4.30;;;1.58;;
75167;SDS011;63748;48.088;11.476;2022-11-20T03:01:05;2.63;;;1.30;;
75167;SDS011;63748;48.088;11.476;2022-11-20T03:03:31;3.38;;;1.13;;
75167;SDS011;63748;48.088;11.476;2022-11-20T03:06:00;3.38;;;2.17;;
75167;SDS011;63748;48.088;11.476;2022-11-20T03:08:27;2.15;;;1.50;;
75167;SDS011;63748;48.088;11.476;2022-11-20T03:10:53;2.80;;;1.70;;
75167;SDS011;63748;48.088;11.476;2022-11-20T03:13:19;1.77;;;1.48;;
75167;SDS011;63748;48.088;11.476;2022-11-20T03:15:45;4.03;;;1.05;;
75167;SDS011;63748;48.088;11.476;2022-11-20T03:18:11;2.33;;;1.27;;
75167;SDS011;63748;48.088;11.476;2022-11-20T03:20:38;2.58;;;1.60;;
75167;SDS011;63748;48.088;11.476;2022-11-20T03:23:04;2.78;;;1.63;;
75167;SDS011;63748;48.088;11.476;2022-11-20T03:25:30;3.28;;;1.75;;
75167;SDS011;63748;48.088;11.476;2022-11-20T03:27:56;3.25;;;1.55;;
75167;SDS011;63748;48.088;11.476;2022-11-20T03:30:22;2.47;;;1.42;;
75167;SDS011;63748;48.088;11.476;2022-11-20T03:32:48;2.75;;;1.55;;
75167;SDS011;63748;48.088;11.476;2022-11-20T03:35:14;2.72;;;1.45;;
75167;SDS011;63748;48.088;11.476;2022-11-20T03:37:40;3.58;;;1.63;;
75167;SDS011;63748;48.088;11.476;2022-11-20T03:40:07;2.80;;;1.85;;
75167;SDS011;63748;48.088;11.476;2022-11-20T03:42:33;3.22;;;1.80;;
75167;SDS011;63748;48.088;11.476;2022-11-20T03:45:17;3.20;;;1.60;;
75167;SDS011;63748;48.088;11.476;2022-11-20T03:47:43;5.25;;;2.33;;
75167;SDS011;63748;48.088;11.476;2022-11-20T03:50:11;3.67;;;1.73;;
75167;SDS011;63748;48.088;11.476;2022-11-20T03:52:38;3.85;;;1.33;;
75167;SDS011;63748;48.088;11.476;2022-11-20T03:55:04;2.92;;;1.60;;
75167;SDS011;63748;48.088;11.476;2022-11-20T03:57:31;2.50;;;1.30;;
75167;SDS011;63748;48.088;11.476;2022-11-20T03:59:57;3.78;;;1.58;;
75167;SDS011;63748;48.088;11.476;2022-11-20T04:02:23;3.67;;;1.80;;
75167;SDS011;63748;48.088;11.476;2022-11-20T04:04:49;3.08;;;1.80;;
75167;SDS011;63748;48.088;11.476;2022-11-20T04:07:15;1.67;;;1.35;;
75167;SDS011;63748;48.088;11.476;2022-11-20T04:09:41;2.67;;;1.38;;
75167;SDS011;63748;48.088;11.476;2022-11-20T04:12:07;4.18;;;1.65;;
75167;SDS011;63748;48.088;11.476;2022-11-20T04:14:33;2.35;;;1.25;;
75167;SDS011;63748;48.088;11.476;2022-11-20T04:16:59;2.47;;;1.55;;
75167;SDS011;63748;48.088;11.476;2022-11-20T04:19:25;1.35;;;1.15;;
75167;SDS011;63748;48.088;11.476;2022-11-20T04:21:51;2.22;;;1.30;;
75167;SDS011;63748;48.088;11.476;2022-11-20T04:24:17;4.00;;;1.45;;
75167;SDS011;63748;48.088;11.476;2022-11-20T04:26:43;3.67;;;1.70;;
75167;SDS011;63748;48.088;11.476;2022-11-20T04:29:10;2.72;;;1.52;;
75167;SDS011;63748;48.088;11.476;2022-11-20T04:31:37;2.08;;;1.65;;
75167;SDS011;63748;48.088;11.476;2022-11-20T04:34:03;2.15;;;1.30;;
75167;SDS011;63748;48.088;11.476;2022-11-20T04:36:30;2.80;;;1.55;;
75167;SDS011;63748;48.088;11.476;2022-11-20T04:38:57;2.58;;;1.27;;
75167;SDS011;63748;48.088;11.476;2022-11-20T04:41:27;2.90;;;1.48;;
75167;SDS011;63748;48.088;11.476;2022-11-20T04:43:54;4.05;;;2.25;;
75167;SDS011;63748;48.088;11.476;2022-11-20T04:46:30;3.40;;;1.48;;
75167;SDS011;63748;48.088;11.476;2022-11-20T04:48:56;3.83;;;2.00;;
75167;SDS011;63748;48.088;11.476;2022-11-20T04:51:23;3.22;;;2.00;;
75167;SDS011;63748;48.088;11.476;2022-11-20T04:53:49;4.15;;;2.30;;
75167;SDS011;63748;48.088;11.476;2022-11-20T04:56:15;2.53;;;1.50;;
75167;SDS011;63748;48.088;11.476;2022-11-20T04:58:41;4.03;;;2.28;;
75167;SDS011;63748;48.088;11.476;2022-11-20T05:01:28;3.58;;;1.55;;
75167;SDS011;63748;48.088;11.476;2022-11-20T05:03:54;3.67;;;1.92;;
75167;SDS011;63748;48.088;11.476;2022-11-20T05:06:20;4.05;;;2.08;;
75167;SDS011;63748;48.088;11.476;2022-11-20T05:08:47;4.78;;;2.00;;
75167;SDS011;63748;48.088;11.476;2022-11-20T05:11:14;3.28;;;1.80;;
75167;SDS011;63748;48.088;11.476;2022-11-20T05:13:40;4.85;;;1.75;;
75167;SDS011;63748;48.088;11.476;2022-11-20T05:16:11;3.75;;;1.67;;
75167;SDS011;63748;48.088;11.476;2022-11-20T05:18:37;3.60;;;2.17;;
75167;SDS011;63748;48.088;11.476;2022-11-20T05:21:04;5.82;;;2.00;;
75167;SDS011;63748;48.088;11.476;2022-11-20T05:23:31;6.95;;;3.25;;
75167;SDS011;63748;48.088;11.476;2022-11-20T05:25:57;4.32;;;1.85;;
75167;SDS011;63748;48.088;11.476;2022-11-20T05:28:23;4.60;;;2.47;;
75167;SDS011;63748;48.088;11.476;2022-11-20T05:30:50;5.00;;;1.95;;
75167;SDS011;63748;48.088;11.476;2022-11-20T05:33:16;2.95;;;1.85;;
75167;SDS011;63748;48.088;11.476;2022-11-20T05:35:42;4.20;;;2.35;;
75167;SDS011;63748;48.088;11.476;2022-11-20T05:38:08;4.70;;;2.05;;
75167;SDS011;63748;48.088;11.476;2022-11-20T05:40:34;6.65;;;2.53;;
75167;SDS011;63748;48.088;11.476;2022-11-20T05:43:00;7.72;;;2.28;;
75167;SDS011;63748;48.088;11.476;2022-11-20T05:45:27;7.00;;;3.15;;
75167;SDS011;63748;48.088;11.476;2022-11-20T05:47:53;4.45;;;1.83;;
75167;SDS011;63748;48.088;11.476;2022-11-20T05:50:19;2.65;;;1.90;;
75167;SDS011;63748;48.088;11.476;2022-11-20T05:52:45;3.13;;;1.90;;
75167;SDS011;63748;48.088;11.476;2022-11-20T05:55:11;3.53;;;1.67;;
75167;SDS011;63748;48.088;11.476;2022-11-20T05:57:37;2.47;;;1.70;;
75167;SDS011;63748;48.088;11.476;2022-11-20T06:00:03;2.33;;;1.63;;
75167;SDS011;63748;48.088;11.476;2022-11-20T06:02:29;2.20;;;1.35;;
75167;SDS011;63748;48.088;11.476;2022-11-20T06:04:55;2.40;;;1.77;;
75167;SDS011;63748;48.088;11.476;2022-11-20T06:07:21;2.50;;;1.50;;
75167;SDS011;63748;48.088;11.476;2022-11-20T06:09:47;2.40;;;1.58;;
75167;SDS011;63748;48.088;11.476;2022-11-20T06:12:13;1.85;;;1.02;;
75167;SDS011;63748;48.088;11.476;2022-11-20T06:14:39;3.17;;;1.13;;
75167;SDS011;63748;48.088;11.476;2022-11-20T06:17:05;2.17;;;1.08;;
75167;SDS011;63748;48.088;11.476;2022-11-20T06:19:31;3.08;;;0.98;;
75167;SDS011;63748;48.088;11.476;2022-11-20T06:21:57;2.17;;;1.33;;
75167;SDS011;63748;48.088;11.476;2022-11-20T06:24:23;1.40;;;0.90;;
75167;SDS011;63748;48.088;11.476;2022-11-20T06:26:50;4.22;;;1.45;;
75167;SDS011;63748;48.088;11.476;2022-11-20T06:29:16;2.45;;;1.27;;
75167;SDS011;63748;48.088;11.476;2022-11-20T06:31:42;1.40;;;1.00;;
75167;SDS011;63748;48.088;11.476;2022-11-20T06:34:09;1.98;;;1.10;;
75167;SDS011;63748;48.088;11.476;2022-11-20T06:36:35;1.52;;;1.02;;
75167;SDS011;63748;48.088;11.476;2022-11-20T06:39:01;2.72;;;1.08;;
75167;SDS011;63748;48.088;11.476;2022-11-20T06:41:28;1.08;;;0.77;;
75167;SDS011;63748;48.088;11.476;2022-11-20T06:43:54;1.90;;;0.93;;
75167;SDS011;63748;48.088;11.476;2022-11-20T06:46:20;1.70;;;0.98;;
75167;SDS011;63748;48.088;11.476;2022-11-20T06:48:47;1.88;;;0.98;;
75167;SDS011;63748;48.088;11.476;2022-11-20T06:51:13;1.15;;;0.70;;
75167;SDS011;63748;48.088;11.476;2022-11-20T06:53:39;1.38;;;1.00;;
75167;SDS011;63748;48.088;11.476;2022-11-20T06:56:06;1.92;;;1.13;;
75167;SDS011;63748;48.088;11.476;2022-11-20T06:58:32;1.15;;;0.73;;
75167;SDS011;63748;48.088;11.476;2022-11-20T07:00:59;3.50;;;0.93;;
75167;SDS011;63748;48.088;11.476;2022-11-20T07:03:25;1.52;;;1.10;;
75167;SDS011;63748;48.088;11.476;2022-11-20T07:05:51;1.80;;;1.05;;
75167;SDS011;63748;48.088;11.476;2022-11-20T07:08:19;2.80;;;1.50;;
75167;SDS011;63748;48.088;11.476;2022-11-20T07:10:45;2.63;;;1.33;;
75167;SDS011;63748;48.088;11.476;2022-11-20T07:13:11;1.60;;;1.10;;
75167;SDS011;63748;48.088;11.476;2022-11-20T07:15:38;2.60;;;1.02;;
75167;SDS011;63748;48.088;11.476;2022-11-20T07:18:04;2.33;;;1.30;;
75167;SDS011;63748;48.088;11.476;2022-11-20T07:20:30;2.75;;;1.92;;
75167;SDS011;63748;48.088;11.476;2022-11-20T07:22:56;3.08;;;1.85;;
75167;SDS011;63748;48.088;11.476;2022-11-20T07:25:23;3.45;;;1.95;;
75167;SDS011;63748;48.088;11.476;2022-11-20T07:27:49;1.92;;;1.10;;
75167;SDS011;63748;48.088;11.476;2022-11-20T07:30:15;2.75;;;1.55;;
75167;SDS011;63748;48.088;11.476;2022-11-20T07:32:41;2.25;;;1.33;;
75167;SDS011;63748;48.088;11.476;2022-11-20T07:35:08;2.22;;;1.70;;
75167;SDS011;63748;48.088;11.476;2022-11-20T07:37:34;1.70;;;1.27;;
75167;SDS011;63748;48.088;11.476;2022-11-20T07:40:00;2.08;;;1.35;;
75167;SDS011;63748;48.088;11.476;2022-11-20T07:42:26;3.03;;;1.90;;
75167;SDS011;63748;48.088;11.476;2022-11-20T07:44:52;2.20;;;1.20;;
75167;SDS011;63748;48.088;11.476;2022-11-20T07:47:18;4.32;;;1.63;;
75167;SDS011;63748;48.088;11.476;2022-11-20T07:49:44;2.58;;;1.58;;
75167;SDS011;63748;48.088;11.476;2022-11-20T07:52:10;1.95;;;1.50;;
75167;SDS011;63748;48.088;11.476;2022-11-20T07:54:36;1.92;;;1.20;;
75167;SDS011;63748;48.088;11.476;2022-11-20T07:57:02;2.35;;;1.55;;
75167;SDS011;63748;48.088;11.476;2022-11-20T07:59:28;3.63;;;1.45;;
75167;SDS011;63748;48.088;11.476;2022-11-20T08:01:55;2.85;;;1.48;;
75167;SDS011;63748;48.088;11.476;2022-11-20T08:04:21;2.03;;;1.30;;
75167;SDS011;63748;48.088;11.476;2022-11-20T08:06:48;1.85;;;1.17;;
75167;SDS011;63748;48.088;11.476;2022-11-20T08:09:14;3.47;;;1.05;;
75167;SDS011;63748;48.088;11.476;2022-11-20T08:11:40;4.95;;;1.50;;
75167;SDS011;63748;48.088;11.476;2022-11-20T08:14:25;1.42;;;0.80;;
75167;SDS011;63748;48.088;11.476;2022-11-20T08:16:52;1.50;;;0.98;;
75167;SDS011;63748;48.088;11.476;2022-11-20T08:19:19;2.42;;;1.00;;
75167;SDS011;63748;48.088;11.476;2022-11-20T08:21:45;2.83;;;1.70;;
75167;SDS011;63748;48.088;11.476;2022-11-20T08:24:11;2.55;;;1.50;;
75167;SDS011;63748;48.088;11.476;2022-11-20T08:26:37;1.95;;;1.20;;
75167;SDS011;63748;48.088;11.476;2022-11-20T08:29:04;2.80;;;1.50;;
75167;SDS011;63748;48.088;11.476;2022-11-20T08:31:30;2.20;;;1.23;;
75167;SDS011;63748;48.088;11.476;2022-11-20T08:33:57;4.72;;;1.40;;
75167;SDS011;63748;48.088;11.476;2022-11-20T08:36:23;1.50;;;1.02;;
75167;SDS011;63748;48.088;11.476;2022-11-20T08:38:54;2.83;;;1.40;;
75167;SDS011;63748;48.088;11.476;2022-11-20T08:41:20;1.50;;;1.10;;
75167;SDS011;63748;48.088;11.476;2022-11-20T08:43:54;2.00;;;1.17;;
75167;SDS011;63748;48.088;11.476;2022-11-20T08:46:20;2.17;;;1.00;;
75167;SDS011;63748;48.088;11.476;2022-11-20T08:48:46;2.17;;;1.13;;
75167;SDS011;63748;48.088;11.476;2022-11-20T08:51:13;2.95;;;1.30;;
75167;SDS011;63748;48.088;11.476;2022-11-20T08:53:39;1.55;;;1.25;;
75167;SDS011;63748;48.088;11.476;2022-11-20T08:56:05;2.25;;;1.13;;
75167;SDS011;63748;48.088;11.476;2022-11-20T08:58:32;2.45;;;1.10;;
75167;SDS011;63748;48.088;11.476;2022-11-20T09:00:58;1.85;;;1.13;;
75167;SDS011;63748;48.088;11.476;2022-11-20T09:03:24;2.13;;;1.23;;
75167;SDS011;63748;48.088;11.476;2022-11-20T09:05:56;2.95;;;0.95;;
75167;SDS011;63748;48.088;11.476;2022-11-20T09:08:22;2.67;;;0.90;;
75167;SDS011;63748;48.088;11.476;2022-11-20T09:10:51;1.65;;;1.15;;
75167;SDS011;63748;48.088;11.476;2022-11-20T09:13:17;2.30;;;1.00;;
75167;SDS011;63748;48.088;11.476;2022-11-20T09:15:43;1.02;;;0.82;;
75167;SDS011;63748;48.088;11.476;2022-11-20T09:18:09;2.03;;;1.10;;
75167;SDS011;63748;48.088;11.476;2022-11-20T09:20:35;1.20;;;0.75;;
75167;SDS011;63748;48.088;11.476;2022-11-20T09:23:01;4.82;;;1.63;;
75167;SDS011;63748;48.088;11.476;2022-11-20T09:25:28;2.53;;;1.23;;
75167;SDS011;63748;48.088;11.476;2022-11-20T09:27:54;3.55;;;1.50;;
75167;SDS011;63748;48.088;11.476;2022-11-20T09:30:21;3.67;;;0.93;;
75167;SDS011;63748;48.088;11.476;2022-11-20T09:32:47;1.15;;;0.75;;
75167;SDS011;63748;48.088;11.476;2022-11-20T09:35:13;0.65;;;0.60;;
75167;SDS011;63748;48.088;11.476;2022-11-20T09:37:39;1.33;;;0.70;;
75167;SDS011;63748;48.088;11.476;2022-11-20T09:40:06;2.38;;;0.93;;
75167;SDS011;63748;48.088;11.476;2022-11-20T09:55:04;0.98;;;0.73;;
75167;SDS011;63748;48.088;11.476;2022-11-20T09:57:34;1.13;;;0.60;;
75167;SDS011;63748;48.088;11.476;2022-11-20T10:00:02;0.95;;;0.60;;
75167;SDS011;63748;48.088;11.476;2022-11-20T10:05:12;0.50;;;0.40;;
75167;SDS011;63748;48.088;11.476;2022-11-20T10:07:42;1.95;;;0.88;;
75167;SDS011;63748;48.088;11.476;2022-11-20T10:10:15;1.60;;;0.70;;
75167;SDS011;63748;48.088;11.476;2022-11-20T10:18:05;1.75;;;0.85;;
75167;SDS011;63748;48.088;11.476;2022-11-20T10:25:32;1.08;;;0.77;;
75167;SDS011;63748;48.088;11.476;2022-11-20T10:30:25;1.52;;;0.60;;
75167;SDS011;63748;48.088;11.476;2022-11-20T10:32:53;0.98;;;0.63;;
75167;SDS011;63748;48.088;11.476;2022-11-20T10:37:56;1.17;;;0.63;;
75167;SDS011;63748;48.088;11.476;2022-11-20T10:42:54;1.52;;;0.70;;
75167;SDS011;63748;48.088;11.476;2022-11-20T10:47:51;1.73;;;0.70;;
75167;SDS011;63748;48.088;11.476;2022-11-20T10:50:19;1.15;;;0.60;;
75167;SDS011;63748;48.088;11.476;2022-11-20T10:52:52;0.55;;;0.47;;
75167;SDS011;63748;48.088;11.476;2022-11-20T10:57:56;0.80;;;0.60;;
75167;SDS011;63748;48.088;11.476;2022-11-20T11:00:23;1.75;;;0.82;;
75167;SDS011;63748;48.088;11.476;2022-11-20T11:02:51;1.85;;;0.93;;
75167;SDS011;63748;48.088;11.476;2022-11-20T11:05:22;3.80;;;1.65;;
75167;SDS011;63748;48.088;11.476;2022-11-20T11:07:49;3.10;;;1.30;;
75167;SDS011;63748;48.088;11.476;2022-11-20T11:10:21;2.38;;;1.20;;
75167;SDS011;63748;48.088;11.476;2022-11-20T11:12:48;2.92;;;1.10;;
75167;SDS011;63748;48.088;11.476;2022-11-20T11:15:27;5.43;;;1.60;;
75167;SDS011;63748;48.088;11.476;2022-11-20T11:17:54;2.08;;;1.02;;
75167;SDS011;63748;48.088;11.476;2022-11-20T11:20:21;1.55;;;0.80;;
75167;SDS011;63748;48.088;11.476;2022-11-20T11:22:55;2.55;;;0.90;;
75167;SDS011;63748;48.088;11.476;2022-11-20T11:25:23;2.58;;;1.08;;
75167;SDS011;63748;48.088;11.476;2022-11-20T11:27:49;1.83;;;0.80;;
75167;SDS011;63748;48.088;11.476;2022-11-20T11:30:17;0.88;;;0.77;;
75167;SDS011;63748;48.088;11.476;2022-11-20T11:32:43;1.08;;;0.80;;
75167;SDS011;63748;48.088;11.476;2022-11-20T11:35:26;1.20;;;0.82;;
75167;SDS011;63748;48.088;11.476;2022-11-20T11:37:53;1.13;;;0.75;;
75167;SDS011;63748;48.088;11.476;2022-11-20T11:40:20;1.90;;;0.70;;
75167;SDS011;63748;48.088;11.476;2022-11-20T11:42:50;1.42;;;0.75;;
75167;SDS011;63748;48.088;11.476;2022-11-20T11:45:17;1.55;;;0.90;;
75167;SDS011;63748;48.088;11.476;2022-11-20T11:47:45;1.13;;;0.90;;
75167;SDS011;63748;48.088;11.476;2022-11-20T11:55:09;2.97;;;1.38;;
75167;SDS011;63748;48.088;11.476;2022-11-20T11:57:45;0.90;;;0.60;;
75167;SDS011;63748;48.088;11.476;2022-11-20T12:00:14;1.52;;;1.00;;
75167;SDS011;63748;48.088;11.476;2022-11-20T12:07:43;2.40;;;0.90;;
75167;SDS011;63748;48.088;11.476;2022-11-20T12:10:15;2.08;;;1.13;;
75167;SDS011;63748;48.088;11.476;2022-11-20T12:12:44;2.78;;;1.48;;
75167;SDS011;63748;48.088;11.476;2022-11-20T12:15:11;2.33;;;1.40;;
75167;SDS011;63748;48.088;11.476;2022-11-20T12:17:37;2.38;;;1.30;;
75167;SDS011;63748;48.088;11.476;2022-11-20T12:20:05;3.75;;;1.13;;
75167;SDS011;63748;48.088;11.476;2022-11-20T12:22:38;3.08;;;0.95;;
75167;SDS011;63748;48.088;11.476;2022-11-20T12:30:21;1.88;;;1.13;;
75167;SDS011;63748;48.088;11.476;2022-11-20T12:40:57;3.22;;;1.30;;
75167;SDS011;63748;48.088;11.476;2022-11-20T12:43:29;2.38;;;1.25;;
75167;SDS011;63748;48.088;11.476;2022-11-20T12:48:42;1.33;;;0.68;;
75167;SDS011;63748;48.088;11.476;2022-11-20T12:51:18;2.20;;;1.30;;
75167;SDS011;63748;48.088;11.476;2022-11-20T13:06:37;2.58;;;1.58;;
75167;SDS011;63748;48.088;11.476;2022-11-20T13:09:09;2.15;;;1.02;;
75167;SDS011;63748;48.088;11.476;2022-11-20T13:11:43;1.02;;;0.88;;
75167;SDS011;63748;48.088;11.476;2022-11-20T13:19:12;3.70;;;1.20;;
75167;SDS011;63748;48.088;11.476;2022-11-20T13:21:39;1.25;;;0.90;;
75167;SDS011;63748;48.088;11.476;2022-11-20T13:24:25;3.33;;;1.30;;
75167;SDS011;63748;48.088;11.476;2022-11-20T13:29:36;0.95;;;0.82;;
75167;SDS011;63748;48.088;11.476;2022-11-20T13:32:03;0.55;;;0.50;;
75167;SDS011;63748;48.088;11.476;2022-11-20T13:34:30;1.95;;;0.95;;
75167;SDS011;63748;48.088;11.476;2022-11-20T13:36:57;2.10;;;1.23;;
75167;SDS011;63748;48.088;11.476;2022-11-20T13:39:30;1.88;;;1.00;;
75167;SDS011;63748;48.088;11.476;2022-11-20T13:41:57;2.25;;;1.05;;
75167;SDS011;63748;48.088;11.476;2022-11-20T13:44:25;2.08;;;0.85;;
75167;SDS011;63748;48.088;11.476;2022-11-20T13:46:52;1.23;;;1.00;;
75167;SDS011;63748;48.088;11.476;2022-11-20T13:51:46;1.40;;;0.93;;
75167;SDS011;63748;48.088;11.476;2022-11-20T13:57:14;1.70;;;0.95;;
75167;SDS011;63748;48.088;11.476;2022-11-20T14:02:27;2.17;;;1.05;;
75167;SDS011;63748;48.088;11.476;2022-11-20T14:04:55;3.30;;;1.52;;
75167;SDS011;63748;48.088;11.476;2022-11-20T14:07:24;1.70;;;1.38;;
75167;SDS011;63748;48.088;11.476;2022-11-20T14:09:51;1.40;;;0.73;;
75167;SDS011;63748;48.088;11.476;2022-11-20T14:12:20;0.70;;;0.57;;
75167;SDS011;63748;48.088;11.476;2022-11-20T14:14:50;1.65;;;1.10;;
75167;SDS011;63748;48.088;11.476;2022-11-20T14:17:18;1.63;;;1.08;;
75167;SDS011;63748;48.088;11.476;2022-11-20T14:19:44;1.85;;;1.23;;
75167;SDS011;63748;48.088;11.476;2022-11-20T14:22:26;2.72;;;1.38;;
75167;SDS011;63748;48.088;11.476;2022-11-20T14:27:38;4.07;;;1.30;;
75167;SDS011;63748;48.088;11.476;2022-11-20T14:30:05;1.85;;;1.23;;
75167;SDS011;63748;48.088;11.476;2022-11-20T14:32:31;3.63;;;1.23;;
75167;SDS011;63748;48.088;11.476;2022-11-20T14:35:02;1.20;;;0.85;;
75167;SDS011;63748;48.088;11.476;2022-11-20T14:37:33;1.60;;;0.80;;
75167;SDS011;63748;48.088;11.476;2022-11-20T14:42:28;1.63;;;1.00;;
75167;SDS011;63748;48.088;11.476;2022-11-20T14:44:56;1.08;;;0.70;;
75167;SDS011;63748;48.088;11.476;2022-11-20T14:47:26;2.17;;;1.02;;
75167;SDS011;63748;48.088;11.476;2022-11-20T14:49:53;2.00;;;0.95;;
75167;SDS011;63748;48.088;11.476;2022-11-20T14:52:24;3.67;;;1.20;;
75167;SDS011;63748;48.088;11.476;2022-11-20T14:54:55;7.22;;;2.15;;
75167;SDS011;63748;48.088;11.476;2022-11-20T14:57:34;3.40;;;0.73;;
75167;SDS011;63748;48.088;11.476;2022-11-20T15:02:43;5.55;;;1.77;;
75167;SDS011;63748;48.088;11.476;2022-11-20T15:05:09;4.70;;;1.10;;
75167;SDS011;63748;48.088;11.476;2022-11-20T15:07:38;6.13;;;1.75;;
75167;SDS011;63748;48.088;11.476;2022-11-20T15:10:19;0.85;;;0.60;;
75167;SDS011;63748;48.088;11.476;2022-11-20T15:12:52;1.40;;;0.80;;
75167;SDS011;63748;48.088;11.476;2022-11-20T15:15:29;1.67;;;0.90;;
75167;SDS011;63748;48.088;11.476;2022-11-20T15:17:57;0.60;;;0.22;;
75167;SDS011;63748;48.088;11.476;2022-11-20T15:20:31;1.02;;;0.50;;
75167;SDS011;63748;48.088;11.476;2022-11-20T15:22:57;0.90;;;0.60;;
75167;SDS011;63748;48.088;11.476;2022-11-20T15:25:23;1.08;;;0.73;;
75167;SDS011;63748;48.088;11.476;2022-11-20T15:27:51;1.15;;;0.43;;
75167;SDS011;63748;48.088;11.476;2022-11-20T15:30:18;1.50;;;0.40;;
75167;SDS011;63748;48.088;11.476;2022-11-20T15:32:45;1.70;;;0.85;;
75167;SDS011;63748;48.088;11.476;2022-11-20T15:35:11;1.92;;;1.05;;
75167;SDS011;63748;48.088;11.476;2022-11-20T15:37:38;0.98;;;0.70;;
75167;SDS011;63748;48.088;11.476;2022-11-20T15:40:05;2.30;;;1.20;;
75167;SDS011;63748;48.088;11.476;2022-11-20T15:42:31;1.27;;;0.70;;
75167;SDS011;63748;48.088;11.476;2022-11-20T15:44:57;1.52;;;0.70;;
75167;SDS011;63748;48.088;11.476;2022-11-20T15:47:27;1.67;;;0.85;;
75167;SDS011;63748;48.088;11.476;2022-11-20T15:49:54;1.10;;;0.63;;
75167;SDS011;63748;48.088;11.476;2022-11-20T15:52:20;1.30;;;0.90;;
75167;SDS011;63748;48.088;11.476;2022-11-20T15:54:46;1.15;;;0.75;;
75167;SDS011;63748;48.088;11.476;2022-11-20T15:57:12;1.25;;;0.70;;
75167;SDS011;63748;48.088;11.476;2022-11-20T15:59:39;2.25;;;1.00;;
75167;SDS011;63748;48.088;11.476;2022-11-20T16:02:12;1.75;;;0.75;;
75167;SDS011;63748;48.088;11.476;2022-11-20T16:04:39;1.42;;;0.77;;
75167;SDS011;63748;48.088;11.476;2022-11-20T16:07:05;1.67;;;0.80;;
75167;SDS011;63748;48.088;11.476;2022-11-20T16:09:31;2.13;;;1.00;;
75167;SDS011;63748;48.088;11.476;2022-11-20T16:11:57;5.80;;;2.42;;
75167;SDS011;63748;48.088;11.476;2022-11-20T16:14:26;4.55;;;2.10;;
75167;SDS011;63748;48.088;11.476;2022-11-20T16:17:11;3.60;;;2.63;;
75167;SDS011;63748;48.088;11.476;2022-11-20T16:19:38;4.35;;;1.75;;
75167;SDS011;63748;48.088;11.476;2022-11-20T16:22:04;2.50;;;1.40;;
75167;SDS011;63748;48.088;11.476;2022-11-20T16:24:30;2.67;;;1.63;;